createdAt,value
2022-09-15T00:00:01.956Z,15.75
2022-09-15T00:02:29.605Z,15.00
2022-09-15T00:04:57.335Z,13.75
2022-09-15T00:07:24.888Z,18.00
2022-09-15T00:09:52.732Z,22.25
2022-09-15T00:12:20.312Z,16.00
2022-09-15T00:14:47.852Z,10.50
2022-09-15T00:17:15.400Z,15.25
2022-09-15T00:19:42.960Z,19.50
2022-09-15T00:22:10.883Z,16.75
2022-09-15T00:24:38.562Z,18.50
2022-09-15T00:27:06.125Z,14.50
2022-09-15T00:29:33.649Z,18.75
2022-09-15T00:32:01.144Z,6.50
2022-09-15T00:34:29.102Z,18.00
2022-09-15T00:36:57.071Z,12.00
2022-09-15T00:39:24.580Z,11.00
2022-09-15T00:41:52.151Z,15.00
2022-09-15T00:44:19.687Z,15.00
2022-09-15T00:47:03.946Z,13.75
2022-09-15T00:49:35.393Z,9.50
2022-09-15T00:52:03.090Z,8.75
2022-09-15T00:54:30.582Z,17.00
2022-09-15T00:57:02.596Z,16.50
2022-09-15T00:59:30.153Z,16.75
2022-09-15T01:01:57.779Z,18.50
2022-09-15T01:04:25.377Z,15.50
2022-09-15T01:06:52.888Z,9.00
2022-09-15T01:09:20.722Z,16.00
2022-09-15T01:11:48.272Z,14.50
2022-09-15T01:14:15.761Z,16.50
2022-09-15T01:16:43.354Z,15.75
2022-09-15T01:19:11.405Z,15.25
2022-09-15T01:21:39.783Z,16.75
2022-09-15T01:24:07.283Z,14.25
2022-09-15T01:26:34.891Z,6.00
2022-09-15T01:29:02.401Z,15.00
2022-09-15T01:31:29.988Z,18.50
2022-09-15T01:33:56.842Z,15.75
2022-09-15T01:36:24.340Z,17.00
2022-09-15T01:38:52.007Z,13.75
2022-09-15T01:41:19.676Z,19.00
2022-09-15T01:43:47.233Z,18.75
2022-09-15T01:46:15.225Z,16.50
2022-09-15T01:48:43.084Z,15.00
2022-09-15T01:51:10.628Z,12.50
2022-09-15T01:53:38.142Z,15.00
2022-09-15T01:56:06.161Z,23.00
2022-09-15T01:58:34.050Z,10.75
2022-09-15T02:01:03.632Z,16.50
2022-09-15T02:03:32.259Z,5.00
2022-09-15T02:06:02.905Z,12.50
2022-09-15T02:08:30.410Z,12.00
2022-09-15T02:10:58.364Z,17.50
2022-09-15T02:13:26.023Z,16.00
2022-09-15T02:15:53.517Z,15.00
2022-09-15T02:18:21.063Z,19.50
2022-09-15T02:20:49.428Z,18.00
2022-09-15T02:23:17.774Z,15.75
2022-09-15T02:25:51.754Z,15.75
2022-09-15T02:28:19.280Z,16.00
2022-09-15T02:30:46.811Z,18.00
2022-09-15T02:33:14.563Z,17.75
2022-09-15T02:35:42.462Z,20.00
2022-09-15T02:38:10.533Z,12.00
2022-09-15T02:40:38.106Z,8.50
2022-09-15T02:43:06.474Z,15.00
2022-09-15T02:45:34.320Z,16.25
2022-09-15T02:48:02.257Z,9.00
2022-09-15T02:50:31.052Z,17.50
2022-09-15T02:52:58.597Z,15.50
2022-09-15T02:55:27.375Z,11.50
2022-09-15T02:57:54.906Z,12.50
2022-09-15T03:00:22.869Z,11.25
2022-09-15T03:02:51.755Z,15.75
2022-09-15T03:05:19.285Z,13.00
2022-09-15T03:07:47.355Z,9.25
2022-09-15T03:10:14.919Z,16.00
2022-09-15T03:12:42.438Z,20.00
2022-09-15T03:15:10.133Z,12.50
2022-09-15T03:17:37.698Z,15.25
2022-09-15T03:20:05.482Z,11.00
2022-09-15T03:22:33.020Z,12.00
2022-09-15T03:25:01.480Z,18.25
2022-09-15T03:27:29.212Z,7.00
2022-09-15T03:29:57.168Z,13.50
2022-09-15T03:32:24.885Z,10.00
2022-09-15T03:34:57.682Z,10.75
2022-09-15T03:37:26.310Z,12.75
2022-09-15T03:39:54.075Z,13.50
2022-09-15T03:42:21.635Z,9.00
2022-09-15T03:44:49.217Z,20.00
2022-09-15T03:47:16.738Z,15.75
2022-09-15T03:49:44.663Z,18.00
2022-09-15T03:52:13.944Z,15.75
2022-09-15T03:54:42.015Z,21.50
2022-09-15T03:57:09.532Z,16.00
2022-09-15T03:59:37.102Z,10.75
2022-09-15T04:02:05.122Z,9.25
2022-09-15T04:04:32.879Z,15.00
2022-09-15T04:07:00.512Z,12.00
2022-09-15T04:09:28.209Z,11.25
2022-09-15T04:11:55.749Z,15.50
2022-09-15T04:14:23.666Z,19.25
2022-09-15T04:16:51.201Z,9.75
2022-09-15T04:19:18.719Z,13.00
2022-09-15T04:21:47.549Z,18.00
2022-09-15T04:24:15.082Z,15.00
2022-09-15T04:26:42.970Z,23.00
2022-09-15T04:29:10.699Z,20.50
2022-09-15T04:31:38.294Z,13.25
2022-09-15T04:34:05.849Z,13.75
2022-09-15T04:36:33.835Z,17.75
2022-09-15T04:39:01.750Z,15.50
2022-09-15T04:41:29.308Z,18.25
2022-09-15T04:43:56.881Z,20.75
2022-09-15T04:46:24.527Z,13.75
2022-09-15T04:48:52.074Z,13.50
2022-09-15T04:51:20.126Z,24.50
2022-09-15T04:53:47.689Z,15.25
2022-09-15T04:56:15.209Z,13.75
2022-09-15T04:58:43.219Z,18.25
2022-09-15T05:01:10.819Z,14.00
2022-09-15T05:03:38.814Z,12.50
2022-09-15T05:06:06.473Z,19.75
2022-09-15T05:08:34.063Z,16.25
2022-09-15T05:11:01.713Z,15.50
2022-09-15T05:13:29.335Z,18.75
2022-09-15T05:15:57.312Z,9.00
2022-09-15T05:18:25.330Z,15.00
2022-09-15T05:20:53.216Z,18.75
2022-09-15T05:23:20.762Z,17.00
2022-09-15T05:25:48.331Z,17.00
2022-09-15T05:28:16.305Z,18.00
2022-09-15T05:30:44.677Z,21.00
2022-09-15T05:33:12.332Z,19.50
2022-09-15T05:35:40.097Z,22.50
2022-09-15T05:38:07.659Z,10.00
2022-09-15T05:40:35.616Z,15.75
2022-09-15T05:43:03.413Z,19.25
2022-09-15T05:45:31.052Z,23.50
2022-09-15T05:47:58.587Z,13.50
2022-09-15T05:50:26.145Z,13.00
2022-09-15T05:52:54.591Z,20.00
2022-09-15T05:55:22.531Z,16.25
2022-09-15T05:57:50.094Z,8.00
2022-09-15T06:00:19.066Z,15.00
2022-09-15T06:02:46.634Z,20.50
2022-09-15T06:05:14.957Z,15.25
2022-09-15T06:07:42.741Z,16.50
2022-09-15T06:10:10.453Z,17.00
2022-09-15T06:12:38.068Z,15.25
2022-09-15T06:15:05.624Z,16.75
2022-09-15T06:17:33.566Z,18.50
2022-09-15T06:20:01.691Z,18.33
2022-09-15T06:22:29.236Z,16.50
2022-09-15T06:24:56.821Z,15.50
2022-09-15T06:27:24.774Z,18.50
2022-09-15T06:29:52.551Z,18.00
2022-09-15T06:32:20.249Z,11.50
2022-09-15T06:34:47.840Z,12.25
2022-09-15T06:37:15.692Z,12.50
2022-09-15T06:39:43.400Z,15.50
2022-09-15T06:42:13.777Z,17.50
2022-09-15T06:44:41.613Z,17.75
2022-09-15T06:47:09.149Z,17.00
2022-09-15T06:49:37.057Z,11.50
2022-09-15T06:52:05.236Z,10.00
2022-09-15T06:54:33.163Z,21.00
2022-09-15T06:57:00.958Z,16.50
2022-09-15T06:59:28.522Z,13.00
2022-09-15T07:01:56.126Z,13.00
2022-09-15T07:04:23.764Z,19.25
2022-09-15T07:06:52.115Z,13.00
2022-09-15T07:09:19.722Z,14.00
2022-09-15T07:11:47.381Z,15.25
2022-09-15T07:14:14.960Z,18.50
2022-09-15T07:16:42.606Z,15.00
2022-09-15T07:19:10.679Z,18.50
2022-09-15T07:21:38.241Z,14.00
2022-09-15T07:24:07.519Z,13.50
2022-09-15T07:26:35.294Z,19.25
2022-09-15T07:29:02.861Z,16.50
2022-09-15T07:31:31.212Z,20.00
2022-09-15T07:33:59.268Z,11.25
2022-09-15T07:36:26.864Z,17.50
2022-09-15T07:38:54.425Z,12.00
2022-09-15T07:41:22.011Z,16.50
2022-09-15T07:43:49.586Z,15.75
2022-09-15T07:46:17.429Z,13.50
2022-09-15T07:48:45.087Z,15.20
2022-09-15T07:51:12.713Z,15.25
2022-09-15T07:53:40.564Z,17.80
2022-09-15T07:56:08.382Z,5.75
2022-09-15T07:58:35.962Z,12.75
2022-09-15T08:01:04.152Z,14.00
2022-09-15T08:03:31.818Z,15.50
2022-09-15T08:05:59.398Z,21.00
2022-09-15T08:08:27.368Z,17.50
2022-09-15T08:10:55.357Z,20.00
2022-09-15T08:13:23.252Z,16.00
2022-09-15T08:15:51.189Z,12.75
2022-09-15T08:18:18.863Z,18.25
2022-09-15T08:20:46.803Z,15.80
2022-09-15T08:23:14.544Z,15.60
2022-09-15T08:25:42.774Z,12.00
2022-09-15T08:28:10.429Z,17.00
2022-09-15T08:30:38.976Z,13.20
2022-09-15T08:33:06.904Z,17.80
2022-09-15T08:35:36.942Z,13.80
2022-09-15T08:38:04.784Z,8.60
2022-09-15T08:40:32.431Z,10.00
2022-09-15T08:43:00.092Z,13.40
2022-09-15T08:45:28.026Z,13.00
2022-09-15T08:47:58.698Z,11.20
2022-09-15T08:50:27.454Z,14.60
2022-09-15T08:52:55.718Z,13.00
2022-09-15T08:55:24.032Z,12.40
2022-09-15T08:57:51.943Z,9.80
2022-09-15T09:00:20.417Z,13.00
2022-09-15T09:02:48.202Z,7.60
2022-09-15T09:05:15.821Z,7.00
2022-09-15T09:07:43.436Z,9.60
2022-09-15T09:10:11.386Z,8.60
2022-09-15T09:12:39.152Z,4.00
2022-09-15T09:15:06.778Z,9.00
2022-09-15T09:17:34.405Z,6.40
2022-09-15T09:20:01.997Z,9.40
2022-09-15T09:22:30.838Z,3.00
2022-09-15T09:24:58.822Z,3.00
2022-09-15T09:27:26.404Z,3.20
2022-09-15T09:29:53.982Z,1.80
2022-09-15T09:32:21.927Z,3.20
2022-09-15T09:34:50.913Z,1.40
2022-09-15T09:37:18.674Z,3.60
2022-09-15T09:39:47.254Z,1.80
2022-09-15T09:42:14.872Z,3.00
2022-09-15T09:44:42.455Z,3.00
2022-09-15T09:47:10.105Z,3.00
2022-09-15T09:49:37.721Z,3.00
2022-09-15T09:52:05.560Z,0.20
2022-09-15T09:54:33.255Z,1.00
2022-09-15T09:57:00.932Z,1.00
2022-09-15T09:59:28.523Z,2.20
2022-09-15T10:01:56.560Z,4.00
2022-09-15T10:04:24.272Z,0.20
2022-09-15T10:06:52.152Z,0.60
2022-09-15T10:09:19.857Z,1.00
2022-09-15T10:11:47.557Z,1.00
2022-09-15T10:14:15.327Z,1.00
2022-09-15T10:16:43.014Z,0.00
2022-09-15T10:19:10.637Z,0.80
2022-09-15T10:21:38.187Z,0.80
2022-09-15T10:24:06.182Z,0.40
2022-09-15T10:26:33.938Z,0.00
2022-09-15T10:29:01.796Z,0.00
2022-09-15T10:31:29.713Z,1.00
2022-09-15T10:33:57.429Z,0.40
2022-09-15T10:36:25.398Z,1.00
2022-09-15T10:38:53.129Z,0.00
2022-09-15T10:41:20.755Z,1.00
2022-09-15T10:43:48.374Z,0.40
2022-09-15T10:46:16.074Z,0.00
2022-09-15T10:48:44.048Z,0.40
2022-09-15T10:51:12.386Z,0.40
2022-09-15T10:53:40.033Z,0.40
2022-09-15T10:56:07.613Z,0.00
2022-09-15T10:58:35.234Z,1.00
2022-09-15T11:01:03.299Z,0.40
2022-09-15T11:03:31.336Z,0.00
2022-09-15T11:05:58.959Z,0.80
2022-09-15T11:08:26.628Z,0.00
2022-09-15T11:10:54.262Z,0.00
2022-09-15T11:13:22.284Z,1.00
2022-09-15T11:15:50.612Z,0.00
2022-09-15T11:18:18.229Z,1.00
2022-09-15T11:20:45.852Z,0.00
2022-09-15T11:23:13.479Z,0.80
2022-09-15T11:25:41.242Z,0.60
2022-09-15T11:28:08.998Z,2.60
2022-09-15T11:30:36.716Z,1.00
2022-09-15T11:33:04.284Z,1.40
2022-09-15T11:35:31.898Z,0.00
2022-09-15T11:37:59.918Z,1.80
2022-09-15T11:40:28.647Z,3.00
2022-09-15T11:42:56.319Z,1.00
2022-09-15T11:45:23.963Z,1.00
2022-09-15T11:47:51.612Z,0.80
2022-09-15T11:50:19.609Z,0.00
2022-09-15T11:52:47.432Z,1.00
2022-09-15T11:55:15.814Z,0.40
2022-09-15T11:57:43.512Z,1.40
2022-09-15T12:00:11.238Z,2.60
2022-09-15T12:02:39.106Z,1.00
2022-09-15T12:05:06.905Z,1.00
2022-09-15T12:07:34.595Z,3.20
2022-09-15T12:10:02.176Z,2.20
2022-09-15T12:12:30.866Z,3.00
2022-09-15T12:14:59.585Z,3.00
2022-09-15T12:17:28.047Z,1.80
2022-09-15T12:19:55.626Z,1.00
2022-09-15T12:22:23.777Z,0.00
2022-09-15T12:24:51.401Z,1.40
2022-09-15T12:27:19.352Z,2.60
2022-09-15T12:29:47.246Z,0.00
2022-09-15T12:32:14.821Z,0.00
2022-09-15T12:34:42.430Z,2.20
2022-09-15T12:37:10.158Z,1.00
2022-09-15T12:39:38.397Z,0.60
2022-09-15T12:42:06.270Z,0.20
2022-09-15T12:44:34.022Z,1.00
2022-09-15T12:47:01.628Z,0.60
2022-09-15T12:49:29.193Z,2.00
2022-09-15T12:51:56.872Z,1.00
2022-09-15T12:54:24.872Z,1.00
2022-09-15T12:56:52.493Z,1.00
2022-09-15T12:59:20.348Z,1.00
2022-09-15T13:01:49.169Z,1.00
2022-09-15T13:04:17.287Z,1.00
2022-09-15T13:06:44.958Z,1.00
2022-09-15T13:09:13.190Z,1.00
2022-09-15T13:11:40.854Z,1.00
2022-09-15T13:14:08.540Z,0.40
2022-09-15T13:16:37.518Z,1.00
2022-09-15T13:19:05.482Z,0.00
2022-09-15T13:21:33.135Z,0.00
2022-09-15T13:24:01.024Z,0.20
2022-09-15T13:26:28.611Z,1.00
2022-09-15T13:28:56.857Z,1.80
2022-09-15T13:31:24.841Z,1.40
2022-09-15T13:39:28.403Z,1.00
2022-09-15T13:41:56.204Z,1.00
2022-09-15T13:44:23.902Z,1.00
2022-09-15T13:46:51.540Z,2.40
2022-09-15T13:49:19.118Z,1.00
2022-09-15T13:51:51.442Z,1.00
2022-09-15T13:54:21.115Z,1.00
2022-09-15T13:56:49.244Z,1.00
2022-09-15T13:59:17.142Z,2.00
2022-09-15T14:01:45.537Z,3.60
2022-09-15T14:04:13.545Z,3.40
2022-09-15T14:06:42.960Z,1.20
2022-09-15T14:09:10.655Z,4.00
2022-09-15T14:11:38.388Z,2.00
2022-09-15T14:14:05.954Z,2.40
2022-09-15T14:16:35.516Z,2.20
2022-09-15T14:19:04.070Z,1.40
2022-09-15T14:21:32.107Z,2.20
2022-09-15T14:23:59.822Z,1.80
2022-09-15T14:26:28.928Z,3.00
2022-09-15T14:28:57.179Z,1.60
2022-09-15T14:31:24.928Z,3.00
2022-09-15T14:33:52.730Z,2.80
2022-09-15T14:36:20.441Z,4.00
2022-09-15T14:38:48.308Z,3.00
2022-09-15T14:41:18.054Z,3.20
2022-09-15T14:43:45.947Z,3.40
2022-09-15T14:46:13.794Z,3.00
2022-09-15T14:48:41.590Z,4.00
2022-09-15T14:51:09.449Z,2.20
2022-09-15T14:53:38.338Z,3.80
2022-09-15T14:56:08.339Z,4.00
2022-09-15T14:58:36.198Z,1.00
2022-09-15T15:01:04.005Z,3.00
2022-09-15T15:03:31.698Z,1.00
2022-09-15T15:06:02.842Z,1.80
2022-09-15T15:08:47.746Z,1.00
2022-09-15T15:11:15.320Z,3.00
2022-09-15T15:13:43.562Z,1.00
2022-09-15T15:16:11.691Z,1.00
2022-09-15T15:18:39.685Z,3.00
2022-09-15T15:21:07.415Z,0.00
2022-09-15T15:23:35.150Z,1.00
2022-09-15T15:26:02.825Z,1.00
2022-09-15T15:28:30.875Z,1.00
2022-09-15T15:30:58.635Z,0.40
2022-09-15T15:33:27.649Z,1.00
2022-09-15T15:35:55.309Z,1.40
2022-09-15T15:38:25.553Z,3.00
2022-09-15T15:40:53.602Z,1.00
2022-09-15T15:43:21.190Z,1.00
2022-09-15T15:45:49.439Z,0.00
2022-09-15T15:48:17.167Z,0.00
2022-09-15T15:50:44.869Z,1.00
2022-09-15T15:53:12.864Z,0.60
2022-09-15T15:55:40.782Z,0.40
2022-09-15T15:58:08.541Z,1.00
2022-09-15T16:00:36.783Z,0.20
2022-09-15T16:03:05.202Z,0.00
2022-09-15T16:05:33.222Z,0.00
2022-09-15T16:08:00.853Z,1.00
2022-09-15T16:10:28.523Z,1.00
2022-09-15T16:12:56.231Z,0.00
2022-09-15T16:15:23.895Z,1.00
2022-09-15T16:17:52.143Z,0.00
2022-09-15T16:20:20.839Z,1.00
2022-09-15T16:22:48.497Z,1.80
2022-09-15T16:25:16.092Z,0.60
2022-09-15T16:27:43.765Z,1.00
2022-09-15T16:30:12.955Z,1.00
2022-09-15T16:32:40.853Z,1.00
2022-09-15T16:35:08.624Z,2.60
2022-09-15T16:37:36.274Z,1.00
2022-09-15T16:40:03.987Z,0.60
2022-09-15T16:42:31.832Z,0.20
2022-09-15T16:44:59.661Z,2.60
2022-09-15T16:47:27.377Z,3.00
2022-09-15T16:49:55.061Z,3.00
2022-09-15T16:52:22.752Z,3.40
2022-09-15T16:54:50.896Z,1.00
2022-09-15T16:57:19.650Z,1.00
2022-09-15T16:59:47.555Z,0.40
2022-09-15T17:02:15.217Z,1.80
2022-09-15T17:04:42.864Z,3.00
2022-09-15T17:07:10.832Z,3.00
2022-09-15T17:09:38.611Z,3.00
2022-09-15T17:12:06.447Z,5.00
2022-09-15T17:14:34.235Z,3.00
2022-09-15T17:17:01.958Z,3.00
2022-09-15T17:19:29.906Z,1.00
2022-09-15T17:21:57.891Z,1.00
2022-09-15T17:24:25.921Z,1.00
2022-09-15T17:26:53.597Z,2.20
2022-09-15T17:29:21.191Z,1.00
2022-09-15T17:31:49.037Z,1.00
2022-09-15T17:34:16.735Z,1.50
2022-09-15T17:36:45.676Z,0.00
2022-09-15T17:39:13.393Z,3.00
2022-09-15T17:41:41.071Z,3.50
2022-09-15T17:44:08.774Z,2.00
2022-09-15T17:46:36.561Z,3.00
2022-09-15T17:49:04.500Z,3.00
2022-09-15T17:51:32.258Z,2.00
2022-09-15T17:54:00.126Z,3.25
2022-09-15T17:56:28.212Z,4.00
2022-09-15T17:58:55.966Z,1.00
2022-09-15T18:01:23.897Z,0.00
2022-09-15T18:03:51.777Z,3.75
2022-09-15T18:06:19.874Z,1.00
2022-09-15T18:08:48.031Z,3.25
2022-09-15T18:11:15.720Z,3.25
2022-09-15T18:13:43.679Z,1.00
2022-09-15T18:16:11.417Z,0.25
2022-09-15T18:18:40.608Z,2.00
2022-09-15T18:21:08.660Z,0.50
2022-09-15T18:23:37.635Z,3.00
2022-09-15T18:26:05.357Z,3.00
2022-09-15T18:28:33.266Z,2.00
2022-09-15T18:31:00.895Z,1.00
2022-09-15T18:33:28.925Z,3.00
2022-09-15T18:35:56.705Z,1.00
2022-09-15T18:38:24.471Z,0.75
2022-09-15T18:40:53.525Z,3.25
2022-09-15T18:43:21.251Z,3.50
2022-09-15T18:45:49.353Z,2.00
2022-09-15T18:48:16.963Z,1.50
2022-09-15T18:50:45.494Z,3.50
2022-09-15T18:53:13.104Z,3.00
2022-09-15T18:55:40.713Z,2.25
2022-09-15T18:58:08.730Z,4.00
2022-09-15T19:00:36.344Z,1.00
2022-09-15T19:03:04.172Z,2.00
2022-09-15T19:05:31.814Z,1.00
2022-09-15T19:07:59.478Z,3.00
2022-09-15T19:10:27.894Z,1.00
2022-09-15T19:12:55.465Z,2.00
2022-09-15T19:15:24.342Z,1.00
2022-09-15T19:17:51.996Z,1.00
2022-09-15T19:20:19.653Z,1.00
2022-09-15T19:22:47.977Z,0.00
2022-09-15T19:25:15.570Z,0.50
2022-09-15T19:27:43.465Z,2.00
2022-09-15T19:30:11.263Z,1.00
2022-09-15T19:32:38.843Z,0.00
2022-09-15T19:35:06.851Z,1.00
2022-09-15T19:37:34.505Z,0.50
2022-09-15T19:40:03.380Z,1.00
2022-09-15T19:42:31.331Z,1.50
2022-09-15T19:44:58.926Z,1.00
2022-09-15T19:47:26.980Z,1.00
2022-09-15T19:49:55.300Z,0.50
2022-09-15T19:52:22.883Z,0.25
2022-09-15T19:54:50.844Z,0.00
2022-09-15T19:57:18.500Z,2.00
2022-09-15T19:59:46.464Z,1.00
2022-09-15T20:02:14.096Z,1.00
2022-09-15T20:04:42.093Z,0.50
2022-09-15T20:07:09.657Z,1.00
2022-09-15T20:09:37.225Z,1.00
2022-09-15T20:12:05.254Z,1.00
2022-09-15T20:14:32.822Z,1.00
2022-09-15T20:17:01.900Z,1.50
2022-09-15T20:19:29.666Z,1.00
2022-09-15T20:21:57.259Z,1.00
2022-09-15T20:24:24.913Z,0.25
2022-09-15T20:26:52.848Z,0.00
2022-09-15T20:29:20.652Z,1.00
2022-09-15T20:31:48.296Z,0.50
2022-09-15T20:34:16.003Z,1.00
2022-09-15T20:36:44.004Z,0.50
2022-09-15T20:39:13.196Z,0.25
2022-09-15T20:41:41.601Z,0.50
2022-09-15T20:44:10.358Z,1.00
2022-09-15T20:46:37.934Z,1.00
2022-09-15T20:49:05.994Z,3.00
2022-09-15T20:51:33.941Z,1.00
2022-09-15T20:54:01.625Z,1.00
2022-09-15T20:56:29.240Z,2.00
2022-09-15T20:58:56.828Z,0.50
2022-09-15T21:01:25.086Z,2.50
2022-09-15T21:03:53.458Z,1.00
2022-09-15T21:06:21.017Z,0.00
2022-09-15T21:08:48.626Z,1.00
2022-09-15T21:11:16.221Z,1.00
2022-09-15T21:13:44.125Z,0.00
2022-09-15T21:16:11.872Z,0.00
2022-09-15T21:18:39.561Z,0.75
2022-09-15T21:21:07.432Z,0.00
2022-09-15T21:23:35.503Z,0.00
2022-09-15T21:26:03.180Z,0.00
2022-09-15T21:28:31.035Z,0.00
2022-09-15T21:30:59.042Z,0.25
2022-09-15T21:33:26.643Z,0.00
2022-09-15T21:35:54.242Z,0.00
2022-09-15T21:38:22.151Z,0.50
2022-09-15T21:40:50.062Z,0.00
2022-09-15T21:43:18.516Z,0.00
2022-09-15T21:45:46.397Z,0.00
2022-09-15T21:48:14.915Z,0.75
2022-09-15T21:50:42.886Z,0.00
2022-09-15T21:53:10.432Z,0.50
2022-09-15T21:55:38.350Z,0.00
2022-09-15T21:58:05.869Z,1.00
2022-09-15T22:00:33.513Z,2.00
2022-09-15T22:03:01.464Z,0.75
2022-09-15T22:05:29.010Z,1.00
2022-09-15T22:08:00.474Z,3.00
2022-09-15T22:10:31.776Z,2.00
2022-09-15T22:12:59.530Z,0.00
2022-09-15T22:15:27.516Z,0.00
2022-09-15T22:17:55.111Z,0.00
2022-09-15T22:20:22.884Z,0.00
2022-09-15T22:22:50.480Z,0.50
2022-09-15T22:25:21.791Z,0.00
2022-09-15T22:27:49.965Z,0.00
2022-09-15T22:30:17.541Z,1.00
2022-09-15T22:32:45.465Z,0.25
2022-09-15T22:35:13.011Z,0.00
2022-09-15T22:37:40.565Z,0.25
2022-09-15T22:40:08.636Z,0.00
2022-09-15T22:42:36.374Z,0.00
2022-09-15T22:45:03.941Z,0.00
2022-09-15T22:47:31.540Z,1.00
2022-09-15T22:49:59.862Z,0.00
2022-09-15T22:52:27.414Z,0.75
2022-09-15T22:54:55.012Z,0.00
2022-09-15T22:57:22.566Z,0.50
2022-09-15T22:59:50.071Z,0.25
2022-09-15T23:02:17.794Z,1.00
2022-09-15T23:04:45.736Z,0.25
2022-09-15T23:07:14.514Z,0.00
2022-09-15T23:09:42.066Z,0.50
2022-09-15T23:12:10.006Z,1.00
2022-09-15T23:14:37.549Z,2.00
2022-09-15T23:17:05.471Z,1.00
2022-09-15T23:19:33.000Z,1.00
2022-09-15T23:22:00.596Z,2.00
2022-09-15T23:24:28.391Z,2.50
2022-09-15T23:26:55.909Z,1.00
2022-09-15T23:29:26.516Z,1.50
2022-09-15T23:31:54.113Z,2.00
2022-09-15T23:34:21.888Z,2.00
2022-09-15T23:36:49.425Z,3.00
2022-09-15T23:39:16.992Z,2.00
2022-09-15T23:41:44.703Z,2.50
2022-09-15T23:44:12.247Z,1.50
2022-09-15T23:46:40.139Z,3.00
2022-09-15T23:49:07.734Z,3.50
2022-09-15T23:51:35.742Z,2.50
2022-09-15T23:54:05.210Z,1.00
2022-09-15T23:56:33.916Z,3.00
2022-09-15T23:59:01.488Z,0.50
